KMIA

Miami International Airport

Miami, Florida, USA
METAR KMIA 200653Z 10014KT 8SM -RA BKN022 BKN034 OVC060 25/21 A3025 RMK AO2 RAB53 SLP242 P0000 T02500211 $
Observed Flight Rules
Feb-20 @ 06:53 UTC (25 minutes ago) Marginal Visual Flight Rules
Wind Visibility Clouds Conditions
100° at 14 knots 8 miles
  • Broken at 2,200' AGL
  • Broken at 3,400' AGL
  • Overcast at 6,000' AGL
  • Light Rain
Temperatures Readings Precipitation
Current 25°C / 77°F
Dewpoint 21°C / 70°F
Humidity 79%
Altimeter 30.25" Hg
Pressure 1024.2 hPa
Elevation 3
Current Rain 0.005
METAR KMIA 200653Z 10014KT 8SM -RA BKN022 BKN034 OVC060 25/21 A3025 RMK AO2 RAB53 SLP242 P0000 T02500211 $
Observed Flight Rules
Feb-20 @ 06:53 UTC
(25 minutes ago)
MVFR
Wind Visibility
100° at 14 knots 8 miles
Clouds
  • Broken at 2,200' AGL
  • Broken at 3,400' AGL
  • Overcast at 6,000' AGL
Conditions
  • Light Rain
Temperature Dewpoint
25°C / 77°F 21°C / 70°F
Humidity Altimeter Pressure
79% 30.25" Hg 1024.2 hPa
Current Rain
0.005